sensor_id;sensor_type;location;lat;lon;timestamp;pressure;altitude;pressure_sealevel;temperature;humidity
16834;BME280;8533;48.426;10.868;2023-11-19T00:00:18;96112.91;;;5.47;100.00
16834;BME280;8533;48.426;10.868;2023-11-19T00:02:43;96036.81;;;5.16;100.00
16834;BME280;8533;48.426;10.868;2023-11-19T00:05:09;96075.22;;;5.44;100.00
16834;BME280;8533;48.426;10.868;2023-11-19T00:07:37;96091.28;;;5.59;100.00
16834;BME280;8533;48.426;10.868;2023-11-19T00:10:10;96056.41;;;5.30;100.00
16834;BME280;8533;48.426;10.868;2023-11-19T00:12:43;96133.50;;;5.66;100.00
16834;BME280;8533;48.426;10.868;2023-11-19T00:15:18;96085.22;;;5.65;100.00
16834;BME280;8533;48.426;10.868;2023-11-19T00:17:47;96073.84;;;5.66;100.00
16834;BME280;8533;48.426;10.868;2023-11-19T00:20:14;95910.66;;;4.67;100.00
16834;BME280;8533;48.426;10.868;2023-11-19T00:22:40;96068.19;;;5.69;100.00
16834;BME280;8533;48.426;10.868;2023-11-19T00:25:07;96011.22;;;5.20;100.00
16834;BME280;8533;48.426;10.868;2023-11-19T00:27:32;96066.97;;;5.72;100.00
16834;BME280;8533;48.426;10.868;2023-11-19T00:29:58;96081.34;;;5.74;100.00
16834;BME280;8533;48.426;10.868;2023-11-19T00:32:23;96038.72;;;5.64;100.00
16834;BME280;8533;48.426;10.868;2023-11-19T00:34:48;96039.84;;;5.68;100.00
16834;BME280;8533;48.426;10.868;2023-11-19T00:37:14;95969.19;;;5.36;100.00
16834;BME280;8533;48.426;10.868;2023-11-19T00:39:43;96036.47;;;5.86;100.00
16834;BME280;8533;48.426;10.868;2023-11-19T00:42:11;96000.03;;;5.62;100.00
16834;BME280;8533;48.426;10.868;2023-11-19T00:44:36;95984.81;;;5.66;100.00
16834;BME280;8533;48.426;10.868;2023-11-19T00:47:02;96031.47;;;5.91;100.00
16834;BME280;8533;48.426;10.868;2023-11-19T00:49:28;96018.03;;;5.94;100.00
16834;BME280;8533;48.426;10.868;2023-11-19T00:51:53;95998.78;;;5.83;100.00
16834;BME280;8533;48.426;10.868;2023-11-19T00:54:18;95997.16;;;5.89;100.00
16834;BME280;8533;48.426;10.868;2023-11-19T00:56:44;95859.59;;;4.92;100.00
16834;BME280;8533;48.426;10.868;2023-11-19T00:59:10;95984.22;;;5.82;100.00
16834;BME280;8533;48.426;10.868;2023-11-19T01:01:35;95949.81;;;5.57;100.00
16834;BME280;8533;48.426;10.868;2023-11-19T01:04:00;95987.47;;;5.96;100.00
16834;BME280;8533;48.426;10.868;2023-11-19T01:06:29;95984.88;;;5.96;100.00
16834;BME280;8533;48.426;10.868;2023-11-19T01:08:55;95988.84;;;5.98;100.00
16834;BME280;8533;48.426;10.868;2023-11-19T01:11:25;95989.19;;;6.02;100.00
16834;BME280;8533;48.426;10.868;2023-11-19T01:13:51;96004.13;;;6.06;100.00
16834;BME280;8533;48.426;10.868;2023-11-19T01:16:17;96007.31;;;6.20;100.00
16834;BME280;8533;48.426;10.868;2023-11-19T01:18:44;96006.22;;;6.28;100.00
16834;BME280;8533;48.426;10.868;2023-11-19T01:21:09;95999.09;;;6.23;100.00
16834;BME280;8533;48.426;10.868;2023-11-19T01:23:35;95981.34;;;6.20;100.00
16834;BME280;8533;48.426;10.868;2023-11-19T01:26:02;96001.50;;;6.36;100.00
16834;BME280;8533;48.426;10.868;2023-11-19T01:28:27;95993.03;;;6.41;100.00
16834;BME280;8533;48.426;10.868;2023-11-19T01:30:53;95982.75;;;6.34;100.00
16834;BME280;8533;48.426;10.868;2023-11-19T01:33:18;95969.53;;;6.36;100.00
16834;BME280;8533;48.426;10.868;2023-11-19T01:35:44;95980.88;;;6.53;100.00
16834;BME280;8533;48.426;10.868;2023-11-19T01:38:09;95926.16;;;6.25;100.00
16834;BME280;8533;48.426;10.868;2023-11-19T01:40:35;95971.72;;;6.50;100.00
16834;BME280;8533;48.426;10.868;2023-11-19T01:43:02;95976.72;;;6.64;100.00
16834;BME280;8533;48.426;10.868;2023-11-19T01:45:29;95976.41;;;6.72;100.00
16834;BME280;8533;48.426;10.868;2023-11-19T01:47:56;95950.53;;;6.77;100.00
16834;BME280;8533;48.426;10.868;2023-11-19T01:50:23;95915.50;;;6.56;100.00
16834;BME280;8533;48.426;10.868;2023-11-19T01:52:52;95941.34;;;6.74;100.00
16834;BME280;8533;48.426;10.868;2023-11-19T01:55:17;95952.34;;;6.88;100.00
16834;BME280;8533;48.426;10.868;2023-11-19T01:57:45;95942.75;;;6.88;100.00
16834;BME280;8533;48.426;10.868;2023-11-19T02:00:12;95927.34;;;6.75;100.00
16834;BME280;8533;48.426;10.868;2023-11-19T02:02:38;95912.91;;;6.79;100.00
16834;BME280;8533;48.426;10.868;2023-11-19T02:05:05;95912.69;;;6.81;100.00
16834;BME280;8533;48.426;10.868;2023-11-19T02:07:31;95898.53;;;6.77;100.00
16834;BME280;8533;48.426;10.868;2023-11-19T02:09:57;95865.44;;;6.61;100.00
16834;BME280;8533;48.426;10.868;2023-11-19T02:12:24;95885.44;;;6.72;100.00
16834;BME280;8533;48.426;10.868;2023-11-19T02:14:49;95922.50;;;7.02;100.00
16834;BME280;8533;48.426;10.868;2023-11-19T02:17:30;95871.44;;;6.73;100.00
16834;BME280;8533;48.426;10.868;2023-11-19T02:19:57;95893.13;;;6.78;100.00
16834;BME280;8533;48.426;10.868;2023-11-19T02:22:22;95906.34;;;6.88;100.00
16834;BME280;8533;48.426;10.868;2023-11-19T02:24:49;95900.09;;;7.01;100.00
16834;BME280;8533;48.426;10.868;2023-11-19T02:28:07;95916.50;;;7.13;100.00
16834;BME280;8533;48.426;10.868;2023-11-19T02:30:08;95901.44;;;7.15;100.00
16834;BME280;8533;48.426;10.868;2023-11-19T02:32:34;95868.91;;;6.89;100.00
16834;BME280;8533;48.426;10.868;2023-11-19T02:35:01;95892.03;;;7.14;100.00
16834;BME280;8533;48.426;10.868;2023-11-19T02:37:26;95887.41;;;7.16;100.00
16834;BME280;8533;48.426;10.868;2023-11-19T02:39:53;95804.88;;;6.60;100.00
16834;BME280;8533;48.426;10.868;2023-11-19T02:42:18;95815.28;;;6.72;100.00
16834;BME280;8533;48.426;10.868;2023-11-19T02:44:44;95857.63;;;6.96;100.00
16834;BME280;8533;48.426;10.868;2023-11-19T02:47:11;95880.97;;;7.19;100.00
16834;BME280;8533;48.426;10.868;2023-11-19T02:49:36;95865.03;;;7.15;100.00
16834;BME280;8533;48.426;10.868;2023-11-19T02:52:02;95797.53;;;6.69;100.00
16834;BME280;8533;48.426;10.868;2023-11-19T02:54:30;95874.19;;;7.18;100.00
16834;BME280;8533;48.426;10.868;2023-11-19T02:57:00;95873.63;;;7.16;100.00
16834;BME280;8533;48.426;10.868;2023-11-19T02:59:26;95873.63;;;7.16;100.00
16834;BME280;8533;48.426;10.868;2023-11-19T03:01:53;95873.06;;;7.14;100.00
16834;BME280;8533;48.426;10.868;2023-11-19T03:04:19;95885.34;;;7.30;100.00
16834;BME280;8533;48.426;10.868;2023-11-19T03:06:46;95834.53;;;6.99;100.00
16834;BME280;8533;48.426;10.868;2023-11-19T03:09:11;95887.72;;;7.32;100.00
16834;BME280;8533;48.426;10.868;2023-11-19T03:11:37;95868.75;;;7.19;100.00
16834;BME280;8533;48.426;10.868;2023-11-19T03:14:02;95867.09;;;7.13;100.00
16834;BME280;8533;48.426;10.868;2023-11-19T03:16:31;95877.53;;;7.30;100.00
16834;BME280;8533;48.426;10.868;2023-11-19T03:18:57;95878.59;;;7.29;100.00
16834;BME280;8533;48.426;10.868;2023-11-19T03:21:29;95898.25;;;7.37;100.00
16834;BME280;8533;48.426;10.868;2023-11-19T03:23:54;95872.81;;;7.27;100.00
16834;BME280;8533;48.426;10.868;2023-11-19T03:26:20;95706.56;;;6.17;100.00
16834;BME280;8533;48.426;10.868;2023-11-19T03:28:46;95890.19;;;7.38;100.00
16834;BME280;8533;48.426;10.868;2023-11-19T03:31:11;95873.69;;;7.33;100.00
16834;BME280;8533;48.426;10.868;2023-11-19T03:33:36;95890.53;;;7.42;100.00
16834;BME280;8533;48.426;10.868;2023-11-19T03:36:02;95885.31;;;7.42;100.00
16834;BME280;8533;48.426;10.868;2023-11-19T03:38:28;95863.19;;;7.27;100.00
16834;BME280;8533;48.426;10.868;2023-11-19T03:40:53;95815.78;;;6.97;100.00
16834;BME280;8533;48.426;10.868;2023-11-19T03:43:18;95884.88;;;7.45;100.00
16834;BME280;8533;48.426;10.868;2023-11-19T03:45:46;95820.94;;;7.09;100.00
16834;BME280;8533;48.426;10.868;2023-11-19T03:48:11;95860.22;;;7.36;100.00
16834;BME280;8533;48.426;10.868;2023-11-19T03:50:37;95876.69;;;7.53;100.00
16834;BME280;8533;48.426;10.868;2023-11-19T03:53:02;95882.81;;;7.47;100.00
16834;BME280;8533;48.426;10.868;2023-11-19T03:55:29;95871.28;;;7.43;100.00
16834;BME280;8533;48.426;10.868;2023-11-19T03:57:55;95886.53;;;7.51;100.00
16834;BME280;8533;48.426;10.868;2023-11-19T04:00:20;95731.47;;;6.53;100.00
16834;BME280;8533;48.426;10.868;2023-11-19T04:02:46;95900.19;;;7.58;100.00
16834;BME280;8533;48.426;10.868;2023-11-19T04:05:12;95895.00;;;7.58;100.00
16834;BME280;8533;48.426;10.868;2023-11-19T04:07:37;95866.09;;;7.43;100.00
16834;BME280;8533;48.426;10.868;2023-11-19T04:10:03;95849.16;;;7.28;100.00
16834;BME280;8533;48.426;10.868;2023-11-19T04:12:29;95894.66;;;7.54;100.00
16834;BME280;8533;48.426;10.868;2023-11-19T04:14:54;95909.16;;;7.62;100.00
16834;BME280;8533;48.426;10.868;2023-11-19T04:17:19;95899.28;;;7.64;100.00
16834;BME280;8533;48.426;10.868;2023-11-19T04:19:45;95881.53;;;7.61;100.00
16834;BME280;8533;48.426;10.868;2023-11-19T04:22:10;95836.06;;;7.23;100.00
16834;BME280;8533;48.426;10.868;2023-11-19T04:24:36;95910.09;;;7.73;100.00
16834;BME280;8533;48.426;10.868;2023-11-19T04:27:01;95881.28;;;7.62;100.00
16834;BME280;8533;48.426;10.868;2023-11-19T04:29:27;95888.59;;;7.77;100.00
16834;BME280;8533;48.426;10.868;2023-11-19T04:31:52;95875.97;;;7.69;100.00
16834;BME280;8533;48.426;10.868;2023-11-19T04:34:17;95872.06;;;7.72;100.00
16834;BME280;8533;48.426;10.868;2023-11-19T04:36:42;95885.44;;;7.75;100.00
16834;BME280;8533;48.426;10.868;2023-11-19T04:39:09;95875.97;;;7.69;100.00
16834;BME280;8533;48.426;10.868;2023-11-19T04:41:48;95795.22;;;7.24;100.00
16834;BME280;8533;48.426;10.868;2023-11-19T04:44:15;95898.88;;;7.84;100.00
16834;BME280;8533;48.426;10.868;2023-11-19T04:46:41;95877.16;;;7.78;100.00
16834;BME280;8533;48.426;10.868;2023-11-19T04:49:09;95814.72;;;7.38;100.00
16834;BME280;8533;48.426;10.868;2023-11-19T04:51:43;95882.00;;;7.86;100.00
16834;BME280;8533;48.426;10.868;2023-11-19T04:54:11;95893.72;;;7.89;100.00
16834;BME280;8533;48.426;10.868;2023-11-19T04:56:37;95884.44;;;7.93;100.00
16834;BME280;8533;48.426;10.868;2023-11-19T04:59:02;95866.03;;;7.83;100.00
16834;BME280;8533;48.426;10.868;2023-11-19T05:01:28;95874.72;;;7.88;100.00
16834;BME280;8533;48.426;10.868;2023-11-19T05:03:53;95861.16;;;7.86;100.00
16834;BME280;8533;48.426;10.868;2023-11-19T05:06:18;95807.13;;;7.48;100.00
16834;BME280;8533;48.426;10.868;2023-11-19T05:08:44;95887.91;;;7.98;100.00
16834;BME280;8533;48.426;10.868;2023-11-19T05:11:10;95807.44;;;7.52;100.00
16834;BME280;8533;48.426;10.868;2023-11-19T05:13:37;95792.06;;;7.50;100.00
16834;BME280;8533;48.426;10.868;2023-11-19T05:16:03;95857.66;;;7.81;100.00
16834;BME280;8533;48.426;10.868;2023-11-19T05:18:28;95869.84;;;7.92;100.00
16834;BME280;8533;48.426;10.868;2023-11-19T05:20:54;95822.03;;;7.53;100.00
16834;BME280;8533;48.426;10.868;2023-11-19T05:23:19;95888.25;;;8.02;100.00
16834;BME280;8533;48.426;10.868;2023-11-19T05:25:45;95886.34;;;7.97;100.00
16834;BME280;8533;48.426;10.868;2023-11-19T05:28:10;95887.53;;;8.07;100.00
16834;BME280;8533;48.426;10.868;2023-11-19T05:30:36;95862.88;;;7.81;100.00
16834;BME280;8533;48.426;10.868;2023-11-19T05:33:01;95829.22;;;7.62;100.00
16834;BME280;8533;48.426;10.868;2023-11-19T05:35:27;95875.50;;;7.89;100.00
16834;BME280;8533;48.426;10.868;2023-11-19T05:37:52;95901.59;;;8.05;100.00
16834;BME280;8533;48.426;10.868;2023-11-19T05:40:18;95892.75;;;8.07;100.00
16834;BME280;8533;48.426;10.868;2023-11-19T05:42:45;95872.69;;;8.07;100.00
16834;BME280;8533;48.426;10.868;2023-11-19T05:45:11;95814.41;;;7.63;100.00
16834;BME280;8533;48.426;10.868;2023-11-19T05:47:37;95825.00;;;7.73;100.00
16834;BME280;8533;48.426;10.868;2023-11-19T05:50:02;95833.94;;;7.77;100.00
16834;BME280;8533;48.426;10.868;2023-11-19T05:52:30;95777.63;;;7.43;100.00
16834;BME280;8533;48.426;10.868;2023-11-19T05:55:02;95837.78;;;7.75;100.00
16834;BME280;8533;48.426;10.868;2023-11-19T05:57:34;95850.25;;;7.89;100.00
16834;BME280;8533;48.426;10.868;2023-11-19T05:59:59;95841.44;;;7.90;100.00
16834;BME280;8533;48.426;10.868;2023-11-19T06:02:25;95853.19;;;7.93;100.00
16834;BME280;8533;48.426;10.868;2023-11-19T06:04:52;95810.78;;;7.64;100.00
16834;BME280;8533;48.426;10.868;2023-11-19T06:07:18;95863.75;;;8.03;100.00
16834;BME280;8533;48.426;10.868;2023-11-19T06:09:43;95885.13;;;8.17;100.00
16834;BME280;8533;48.426;10.868;2023-11-19T06:12:08;95827.69;;;7.78;100.00
16834;BME280;8533;48.426;10.868;2023-11-19T06:14:34;95887.94;;;8.15;100.00
16834;BME280;8533;48.426;10.868;2023-11-19T06:16:59;95719.53;;;7.09;100.00
16834;BME280;8533;48.426;10.868;2023-11-19T06:19:25;95851.38;;;7.93;100.00
16834;BME280;8533;48.426;10.868;2023-11-19T06:21:50;95887.50;;;8.18;100.00
16834;BME280;8533;48.426;10.868;2023-11-19T06:24:16;95891.91;;;8.18;100.00
16834;BME280;8533;48.426;10.868;2023-11-19T06:26:41;95820.81;;;7.72;100.00
16834;BME280;8533;48.426;10.868;2023-11-19T06:29:07;95840.88;;;7.88;100.00
16834;BME280;8533;48.426;10.868;2023-11-19T06:31:32;95899.34;;;8.26;100.00
16834;BME280;8533;48.426;10.868;2023-11-19T06:33:57;95886.94;;;8.16;100.00
16834;BME280;8533;48.426;10.868;2023-11-19T06:36:22;95887.78;;;8.22;100.00
16834;BME280;8533;48.426;10.868;2023-11-19T06:38:48;95891.63;;;8.31;100.00
16834;BME280;8533;48.426;10.868;2023-11-19T06:41:13;95894.44;;;8.29;100.00
16834;BME280;8533;48.426;10.868;2023-11-19T06:43:39;95903.69;;;8.37;100.00
16834;BME280;8533;48.426;10.868;2023-11-19T06:46:04;95844.50;;;8.04;100.00
16834;BME280;8533;48.426;10.868;2023-11-19T06:48:34;95892.75;;;8.35;100.00
16834;BME280;8533;48.426;10.868;2023-11-19T06:51:00;95910.03;;;8.41;100.00
16834;BME280;8533;48.426;10.868;2023-11-19T06:53:25;95909.53;;;8.44;100.00
16834;BME280;8533;48.426;10.868;2023-11-19T06:55:53;95909.88;;;8.48;100.00
16834;BME280;8533;48.426;10.868;2023-11-19T06:58:18;95864.84;;;8.19;100.00
16834;BME280;8533;48.426;10.868;2023-11-19T07:00:43;95894.41;;;8.41;100.00
16834;BME280;8533;48.426;10.868;2023-11-19T07:03:09;95913.34;;;8.53;100.00
16834;BME280;8533;48.426;10.868;2023-11-19T07:05:38;95881.88;;;8.26;100.00
16834;BME280;8533;48.426;10.868;2023-11-19T07:08:04;95907.59;;;8.51;100.00
16834;BME280;8533;48.426;10.868;2023-11-19T07:10:29;95870.19;;;8.29;100.00
16834;BME280;8533;48.426;10.868;2023-11-19T07:12:56;95951.03;;;8.62;100.00
16834;BME280;8533;48.426;10.868;2023-11-19T07:15:21;95894.47;;;8.46;100.00
16834;BME280;8533;48.426;10.868;2023-11-19T07:17:46;95903.47;;;8.55;100.00
16834;BME280;8533;48.426;10.868;2023-11-19T07:20:13;95933.78;;;8.61;100.00
16834;BME280;8533;48.426;10.868;2023-11-19T07:22:43;95913.50;;;8.63;100.00
16834;BME280;8533;48.426;10.868;2023-11-19T07:25:08;95874.78;;;8.38;100.00
16834;BME280;8533;48.426;10.868;2023-11-19T07:27:33;95916.44;;;8.67;100.00
16834;BME280;8533;48.426;10.868;2023-11-19T07:29:59;95947.44;;;8.85;100.00
16834;BME280;8533;48.426;10.868;2023-11-19T07:32:24;95908.75;;;8.60;100.00
16834;BME280;8533;48.426;10.868;2023-11-19T07:34:49;95951.75;;;8.91;100.00
16834;BME280;8533;48.426;10.868;2023-11-19T07:37:15;95939.00;;;8.78;100.00
16834;BME280;8533;48.426;10.868;2023-11-19T07:39:42;95953.00;;;8.89;100.00
16834;BME280;8533;48.426;10.868;2023-11-19T07:42:07;95938.31;;;8.83;100.00
16834;BME280;8533;48.426;10.868;2023-11-19T07:44:32;95912.31;;;8.71;100.00
16834;BME280;8533;48.426;10.868;2023-11-19T07:46:58;95957.09;;;9.01;100.00
16834;BME280;8533;48.426;10.868;2023-11-19T07:49:23;95925.41;;;8.93;100.00
16834;BME280;8533;48.426;10.868;2023-11-19T07:51:49;95920.69;;;8.90;100.00
16834;BME280;8533;48.426;10.868;2023-11-19T07:54:14;95869.19;;;8.63;100.00
16834;BME280;8533;48.426;10.868;2023-11-19T07:56:39;95942.84;;;9.09;100.00
16834;BME280;8533;48.426;10.868;2023-11-19T07:59:05;95963.41;;;9.22;100.00
16834;BME280;8533;48.426;10.868;2023-11-19T08:01:30;95912.22;;;8.99;100.00
16834;BME280;8533;48.426;10.868;2023-11-19T08:03:55;95970.31;;;9.33;100.00
16834;BME280;8533;48.426;10.868;2023-11-19T08:06:21;95915.19;;;9.08;100.00
16834;BME280;8533;48.426;10.868;2023-11-19T08:08:46;95930.19;;;9.17;100.00
16834;BME280;8533;48.426;10.868;2023-11-19T08:11:13;95966.19;;;9.37;100.00
16834;BME280;8533;48.426;10.868;2023-11-19T08:13:38;95965.97;;;9.39;100.00
16834;BME280;8533;48.426;10.868;2023-11-19T08:16:04;95970.94;;;9.40;100.00
16834;BME280;8533;48.426;10.868;2023-11-19T08:18:30;95849.50;;;8.72;100.00
16834;BME280;8533;48.426;10.868;2023-11-19T08:20:55;95968.41;;;9.45;100.00
16834;BME280;8533;48.426;10.868;2023-11-19T08:23:21;95950.22;;;9.34;100.00
16834;BME280;8533;48.426;10.868;2023-11-19T08:25:48;95966.16;;;9.54;100.00
16834;BME280;8533;48.426;10.868;2023-11-19T08:28:14;95966.16;;;9.54;100.00
16834;BME280;8533;48.426;10.868;2023-11-19T08:30:40;95923.28;;;9.28;100.00
16834;BME280;8533;48.426;10.868;2023-11-19T08:33:05;95831.72;;;8.69;100.00
16834;BME280;8533;48.426;10.868;2023-11-19T08:35:32;95952.41;;;9.42;100.00
16834;BME280;8533;48.426;10.868;2023-11-19T08:37:57;95964.72;;;9.63;100.00
16834;BME280;8533;48.426;10.868;2023-11-19T08:40:24;95966.81;;;9.66;100.00
16834;BME280;8533;48.426;10.868;2023-11-19T08:42:51;95970.47;;;9.65;100.00
16834;BME280;8533;48.426;10.868;2023-11-19T08:45:16;95974.41;;;9.68;100.00
16834;BME280;8533;48.426;10.868;2023-11-19T08:47:41;95909.75;;;9.31;100.00
16834;BME280;8533;48.426;10.868;2023-11-19T08:50:07;95934.03;;;9.53;100.00
16834;BME280;8533;48.426;10.868;2023-11-19T08:52:33;95895.69;;;9.32;100.00
16834;BME280;8533;48.426;10.868;2023-11-19T08:54:58;95921.28;;;9.57;100.00
16834;BME280;8533;48.426;10.868;2023-11-19T08:57:24;95813.75;;;8.90;100.00
16834;BME280;8533;48.426;10.868;2023-11-19T08:59:49;95945.81;;;9.78;100.00
16834;BME280;8533;48.426;10.868;2023-11-19T09:02:14;95970.69;;;10.07;100.00
16834;BME280;8533;48.426;10.868;2023-11-19T09:04:40;95925.28;;;9.86;100.00
16834;BME280;8533;48.426;10.868;2023-11-19T09:07:06;95948.19;;;10.06;100.00
16834;BME280;8533;48.426;10.868;2023-11-19T09:09:32;95967.28;;;10.28;100.00
16834;BME280;8533;48.426;10.868;2023-11-19T09:12:01;95944.22;;;10.20;100.00
16834;BME280;8533;48.426;10.868;2023-11-19T09:14:26;95978.28;;;10.30;100.00
16834;BME280;8533;48.426;10.868;2023-11-19T09:16:52;95974.84;;;10.30;100.00
16834;BME280;8533;48.426;10.868;2023-11-19T09:19:18;95983.56;;;10.36;100.00
16834;BME280;8533;48.426;10.868;2023-11-19T09:21:43;95974.19;;;10.40;100.00
16834;BME280;8533;48.426;10.868;2023-11-19T09:24:09;95961.97;;;10.45;100.00
16834;BME280;8533;48.426;10.868;2023-11-19T09:26:34;95939.06;;;10.30;100.00
16834;BME280;8533;48.426;10.868;2023-11-19T09:29:01;95890.22;;;10.09;100.00
16834;BME280;8533;48.426;10.868;2023-11-19T09:31:26;95905.34;;;10.29;100.00
16834;BME280;8533;48.426;10.868;2023-11-19T09:33:51;95916.66;;;10.40;100.00
16834;BME280;8533;48.426;10.868;2023-11-19T09:36:17;95951.38;;;10.62;100.00
16834;BME280;8533;48.426;10.868;2023-11-19T09:38:43;95822.91;;;9.63;100.00
16834;BME280;8533;48.426;10.868;2023-11-19T09:41:09;95954.03;;;10.67;100.00
16834;BME280;8533;48.426;10.868;2023-11-19T09:43:37;95957.56;;;10.83;100.00
16834;BME280;8533;48.426;10.868;2023-11-19T09:46:09;95899.22;;;10.50;100.00
16834;BME280;8533;48.426;10.868;2023-11-19T09:48:37;95939.44;;;10.76;100.00
16834;BME280;8533;48.426;10.868;2023-11-19T09:51:04;95956.84;;;10.92;100.00
16834;BME280;8533;48.426;10.868;2023-11-19T09:53:30;95927.38;;;10.70;100.00
16834;BME280;8533;48.426;10.868;2023-11-19T09:55:57;95935.66;;;10.94;100.00
16834;BME280;8533;48.426;10.868;2023-11-19T09:58:24;95883.88;;;10.59;100.00
16834;BME280;8533;48.426;10.868;2023-11-19T10:00:49;95924.91;;;10.90;100.00
16834;BME280;8533;48.426;10.868;2023-11-19T10:03:15;95995.59;;;11.32;100.00
16834;BME280;8533;48.426;10.868;2023-11-19T10:05:40;95920.31;;;11.13;100.00
16834;BME280;8533;48.426;10.868;2023-11-19T10:08:06;95959.84;;;11.58;100.00
16834;BME280;8533;48.426;10.868;2023-11-19T10:10:32;95936.22;;;11.53;100.00
16834;BME280;8533;48.426;10.868;2023-11-19T10:12:58;95931.00;;;11.53;100.00
16834;BME280;8533;48.426;10.868;2023-11-19T10:15:26;95980.66;;;11.85;100.00
16834;BME280;8533;48.426;10.868;2023-11-19T10:17:55;95995.41;;;11.91;100.00
16834;BME280;8533;48.426;10.868;2023-11-19T10:20:20;95898.22;;;11.45;100.00
16834;BME280;8533;48.426;10.868;2023-11-19T10:22:46;95979.13;;;11.94;100.00
16834;BME280;8533;48.426;10.868;2023-11-19T10:25:28;95940.28;;;11.76;100.00
16834;BME280;8533;48.426;10.868;2023-11-19T10:27:54;95950.53;;;11.82;100.00
16834;BME280;8533;48.426;10.868;2023-11-19T10:30:25;95984.41;;;12.04;100.00
16834;BME280;8533;48.426;10.868;2023-11-19T10:33:13;95989.72;;;12.14;100.00
16834;BME280;8533;48.426;10.868;2023-11-19T10:35:54;95928.47;;;11.73;100.00
16834;BME280;8533;48.426;10.868;2023-11-19T10:38:21;95984.66;;;11.98;100.00
16834;BME280;8533;48.426;10.868;2023-11-19T10:40:48;95992.53;;;12.03;100.00
16834;BME280;8533;48.426;10.868;2023-11-19T10:43:13;95997.81;;;12.13;100.00
16834;BME280;8533;48.426;10.868;2023-11-19T10:45:39;95987.88;;;12.15;100.00
16834;BME280;8533;48.426;10.868;2023-11-19T10:48:05;95960.53;;;11.96;100.00
16834;BME280;8533;48.426;10.868;2023-11-19T10:50:33;95940.31;;;11.86;100.00
16834;BME280;8533;48.426;10.868;2023-11-19T10:52:58;95973.44;;;12.12;100.00
16834;BME280;8533;48.426;10.868;2023-11-19T10:55:27;95981.59;;;12.16;100.00
16834;BME280;8533;48.426;10.868;2023-11-19T10:58:02;95861.25;;;11.32;100.00
16834;BME280;8533;48.426;10.868;2023-11-19T11:03:10;95928.75;;;11.77;100.00
16834;BME280;8533;48.426;10.868;2023-11-19T11:05:37;95975.00;;;12.18;100.00
16834;BME280;8533;48.426;10.868;2023-11-19T11:08:06;95925.41;;;12.02;100.00
16834;BME280;8533;48.426;10.868;2023-11-19T11:10:35;96000.78;;;12.42;100.00
16834;BME280;8533;48.426;10.868;2023-11-19T11:13:05;95959.84;;;12.31;100.00
16834;BME280;8533;48.426;10.868;2023-11-19T11:15:31;95965.88;;;12.41;100.00
16834;BME280;8533;48.426;10.868;2023-11-19T11:18:00;95960.13;;;12.54;100.00
16834;BME280;8533;48.426;10.868;2023-11-19T11:20:30;95989.28;;;12.63;100.00
16834;BME280;8533;48.426;10.868;2023-11-19T11:25:59;95967.75;;;12.76;100.00
16834;BME280;8533;48.426;10.868;2023-11-19T11:34:57;95958.06;;;12.56;100.00
16834;BME280;8533;48.426;10.868;2023-11-19T11:37:26;95940.19;;;12.43;100.00
16834;BME280;8533;48.426;10.868;2023-11-19T11:39:57;95965.91;;;12.56;100.00
16834;BME280;8533;48.426;10.868;2023-11-19T11:45:06;95955.13;;;12.58;100.00
16834;BME280;8533;48.426;10.868;2023-11-19T11:50:08;95975.09;;;12.94;100.00
16834;BME280;8533;48.426;10.868;2023-11-19T11:52:33;95929.44;;;12.75;100.00
16834;BME280;8533;48.426;10.868;2023-11-19T11:55:04;95989.00;;;12.90;100.00
16834;BME280;8533;48.426;10.868;2023-11-19T11:57:36;95921.31;;;12.72;100.00
16834;BME280;8533;48.426;10.868;2023-11-19T12:00:02;96001.09;;;12.96;100.00
16834;BME280;8533;48.426;10.868;2023-11-19T12:02:30;95967.50;;;12.93;100.00
16834;BME280;8533;48.426;10.868;2023-11-19T12:04:56;95953.59;;;12.72;100.00
16834;BME280;8533;48.426;10.868;2023-11-19T12:07:23;95907.66;;;12.49;100.00
16834;BME280;8533;48.426;10.868;2023-11-19T12:09:52;95956.72;;;12.94;100.00
16834;BME280;8533;48.426;10.868;2023-11-19T12:12:25;95955.41;;;13.02;100.00
16834;BME280;8533;48.426;10.868;2023-11-19T12:15:04;95959.63;;;13.13;100.00
16834;BME280;8533;48.426;10.868;2023-11-19T12:20:04;95907.38;;;12.96;100.00
16834;BME280;8533;48.426;10.868;2023-11-19T12:22:40;95953.03;;;13.26;100.00
16834;BME280;8533;48.426;10.868;2023-11-19T12:25:08;95966.44;;;13.29;100.00
16834;BME280;8533;48.426;10.868;2023-11-19T12:27:35;95935.16;;;13.08;100.00
16834;BME280;8533;48.426;10.868;2023-11-19T12:30:04;95921.28;;;12.92;100.00
16834;BME280;8533;48.426;10.868;2023-11-19T12:32:43;95944.66;;;13.04;100.00
16834;BME280;8533;48.426;10.868;2023-11-19T12:35:10;95939.38;;;12.98;100.00
16834;BME280;8533;48.426;10.868;2023-11-19T12:37:49;95932.34;;;12.89;100.00
16834;BME280;8533;48.426;10.868;2023-11-19T12:40:23;95958.03;;;12.82;100.00
16834;BME280;8533;48.426;10.868;2023-11-19T12:42:50;95924.69;;;12.82;100.00
16834;BME280;8533;48.426;10.868;2023-11-19T12:45:16;95918.66;;;12.82;100.00
16834;BME280;8533;48.426;10.868;2023-11-19T12:47:43;95920.50;;;12.51;100.00
16834;BME280;8533;48.426;10.868;2023-11-19T12:50:09;95914.22;;;12.87;100.00
16834;BME280;8533;48.426;10.868;2023-11-19T12:52:36;95858.03;;;12.88;100.00
16834;BME280;8533;48.426;10.868;2023-11-19T12:55:03;95917.06;;;13.21;100.00
16834;BME280;8533;48.426;10.868;2023-11-19T12:57:41;95892.09;;;13.09;100.00
16834;BME280;8533;48.426;10.868;2023-11-19T13:00:17;95907.63;;;13.05;100.00
16834;BME280;8533;48.426;10.868;2023-11-19T13:02:56;95735.63;;;11.93;100.00
16834;BME280;8533;48.426;10.868;2023-11-19T13:05:31;95893.69;;;13.15;100.00
16834;BME280;8533;48.426;10.868;2023-11-19T13:08:08;95877.41;;;13.18;100.00
16834;BME280;8533;48.426;10.868;2023-11-19T13:10:53;95888.66;;;13.33;100.00
16834;BME280;8533;48.426;10.868;2023-11-19T13:13:19;95885.75;;;13.30;100.00
16834;BME280;8533;48.426;10.868;2023-11-19T13:15:45;95877.69;;;13.21;100.00